Latest Weather Observations for Hartz Mountains

IDT60801

Issued at 11:01 pm EST Saturday 25 May 2019 (issued every 10 minutes, with the page automatically refreshed every 10 minutes)

About weather observations | Map of weather stations | Latest weather observations for TAS | Other Formats
Station Details ID: 094191 Name: HARTZ MOUNTAIN (KEOGHS PIMPLE) Lat: -43.20 Lon: 146.77 Height: 831.0 m
Data from the previous 72 hours. | See also: Recent months at Hartz Mountains
Date/Time
EST
Temp
°C
App
Temp
°C
Dew
Point
°C
Rel
Hum
%
Delta-T
°C
Wind Press
QNH
hPa
Press
MSL
hPa
Rain since
9am
mm
Dir  Spd
km/h
Gust
km/h
Spd
kts
Gust
kts
25/11:00pm 3.4 -1.9 3.0 97 0.2 WNW 20 37 11 20 - - 1.2
25/10:30pm 3.4 -0.6 3.0 97 0.2 W 13 28 7 15 - - 1.2
25/10:00pm 3.4 -2.3 3.0 97 0.2 W 22 37 12 20 - - 1.2
25/09:30pm 3.6 -2.1 3.0 96 0.3 NW 22 32 12 17 - - 1.0
25/09:00pm 3.8 -1.5 3.2 96 0.3 WNW 20 30 11 16 - - 1.0
25/08:30pm 3.9 -2.1 3.2 95 0.3 NW 24 35 13 19 - - 0.6
25/08:00pm 3.9 -2.1 3.2 95 0.3 WNW 24 37 13 20 - - 0.6
25/07:30pm 3.9 -3.3 3.0 94 0.4 WNW 30 43 16 23 - - 0.6
25/07:05pm 3.7 -3.1 3.0 95 0.3 WNW 28 46 15 25 - - 0.6
25/07:00pm 3.8 -3.0 3.1 95 0.3 WNW 28 44 15 24 - - 0.6
25/06:30pm 4.0 -3.5 3.4 96 0.3 WNW 32 50 17 27 - - 0.6
25/06:24pm 4.1 -3.6 3.5 96 0.3 W 33 52 18 28 - - 0.6
25/06:00pm 4.3 -2.4 3.6 95 0.3 W 28 41 15 22 - - 0.6
25/05:43pm 4.5 -2.3 3.3 92 0.5 WNW 28 48 15 26 - - 0.4
25/05:30pm 4.5 -2.3 3.2 91 0.6 WNW 28 43 15 23 - - 0.4
25/05:00pm 4.6 -3.5 3.1 90 0.6 WNW 35 56 19 30 - - 0.4
25/04:30pm 4.6 -3.9 2.9 89 0.7 WNW 37 65 20 35 - - 0.4
25/04:16pm 4.6 -4.3 3.1 90 0.6 WNW 39 67 21 36 - - 0.4
25/04:01pm 4.7 -2.4 3.5 92 0.5 WNW 30 48 16 26 - - 0.2
25/04:00pm 4.7 -2.8 3.5 92 0.5 WNW 32 48 17 26 - - 0.2
25/03:30pm 4.8 -2.8 3.9 94 0.4 WNW 33 57 18 31 - - 0.2
25/03:11pm 5.1 -2.3 3.9 92 0.5 WNW 32 50 17 27 - - 0.2
25/03:00pm 5.5 -2.1 3.8 89 0.8 WNW 33 44 18 24 - - 0.0
25/02:30pm 5.7 -3.1 3.5 86 1.0 WNW 39 61 21 33 - - 0.0
25/02:00pm 6.2 -2.6 3.5 83 1.2 WNW 39 59 21 32 - - 0.0
25/01:30pm 6.0 -3.2 3.3 83 1.2 WNW 41 70 22 38 - - 0.0
25/01:00pm 5.8 -3.5 3.0 82 1.2 WNW 41 63 22 34 - - 0.0
25/12:33pm 5.6 -3.2 3.6 87 0.9 WNW 39 57 21 31 - - 0.0
25/12:30pm 5.6 -4.0 3.6 87 0.9 WNW 43 57 23 31 - - 0.0
25/12:00pm 5.2 -4.2 4.2 93 0.4 WNW 43 65 23 35 - - 0.0
25/11:30am 5.4 -3.3 4.1 91 0.6 WNW 39 59 21 32 - - 0.0
25/11:00am 5.6 -3.2 3.6 87 0.9 WNW 39 63 21 34 - - 0.0
25/10:30am 5.9 -1.6 3.4 84 1.1 WNW 32 56 17 30 - - 0.0
25/10:00am 5.5 -3.0 3.3 86 1.0 WNW 37 56 20 30 - - 0.0
25/09:34am 5.4 -0.9 3.6 88 0.8 W 26 50 14 27 - - 0.0
25/09:30am 5.2 -2.0 3.1 86 0.9 W 30 46 16 25 - - 0.0
25/09:05am 5.3 -1.5 3.3 87 0.9 WNW 28 52 15 28 - - 0.0
25/09:00am 5.2 -0.1 3.1 86 0.9 WNW 20 52 11 28 - - 18.6
25/08:30am 5.4 -4.2 3.6 88 0.8 WNW 43 72 23 39 - - 18.6
25/08:00am 5.1 -3.6 4.1 93 0.4 WNW 39 72 21 39 - - 18.6
25/07:32am 5.7 -3.3 4.5 92 0.5 WNW 41 59 22 32 - - 18.4
25/07:30am 5.8 -3.2 4.6 92 0.5 WNW 41 57 22 31 - - 18.4
25/07:00am 5.9 -2.4 4.4 90 0.7 WNW 37 57 20 31 - - 18.4
25/06:35am 5.7 -1.8 4.2 90 0.7 WNW 33 52 18 28 - - 18.4
25/06:30am 5.7 -1.7 4.2 90 0.7 WNW 32 46 17 25 - - 18.4
25/06:00am 5.6 -2.6 4.6 93 0.5 WNW 37 57 20 31 - - 18.4
25/05:36am 5.8 -1.6 5.2 96 0.3 WNW 33 52 18 28 - - 18.4
25/05:30am 5.7 -2.1 5.1 96 0.3 NW 35 52 19 28 - - 18.4
25/05:00am 5.4 -1.1 4.7 95 0.3 NW 28 46 15 25 - - 18.4
25/04:30am 5.3 -0.5 4.6 95 0.3 WNW 24 41 13 22 - - 18.4
25/04:00am 5.6 -3.0 4.9 95 0.3 WNW 39 59 21 32 - - 18.4
25/03:40am 5.8 -1.4 5.2 96 0.3 WNW 32 52 17 28 - - 18.4
25/03:30am 5.8 -1.0 5.1 95 0.3 WNW 30 44 16 24 - - 18.4
25/03:00am 5.7 -0.7 5.0 95 0.3 WNW 28 50 15 27 - - 18.2
25/02:30am 5.7 -1.2 4.5 92 0.5 W 30 54 16 29 - - 18.2
25/02:09am 5.7 -1.6 4.5 92 0.5 W 32 57 17 31 - - 18.2
25/02:00am 5.7 -1.2 4.7 93 0.5 W 30 41 16 22 - - 18.2
25/01:30am 5.7 -2.9 4.7 93 0.5 W 39 59 21 32 - - 18.2
25/01:00am 6.1 -3.3 5.2 94 0.4 W 44 67 24 36 - - 18.2
25/12:30am 6.4 -2.9 5.2 92 0.6 WNW 43 65 23 35 - - 18.2
25/12:00am 6.8 -3.3 5.7 93 0.5 W 48 78 26 42 - - 18.2
 
Date/Time
EST
Temp
°C
App
Temp
°C
Dew
Point
°C
Rel
Hum
%
Delta-T
°C
Wind Press
QNH
hPa
Press
MSL
hPa
Rain since
9am
mm
Dir  Spd
km/h
Gust
km/h
Spd
kts
Gust
kts
24/11:30pm 6.9 -1.1 5.8 93 0.5 WNW 37 69 20 37 - - 18.2
24/11:00pm 7.3 0.3 6.7 96 0.3 WNW 33 56 18 30 - - 18.2
24/10:32pm 7.6 -0.5 7.2 97 0.2 WNW 39 65 21 35 - - 17.8
24/10:30pm 7.5 -0.6 7.1 97 0.2 WNW 39 65 21 35 - - 17.8
24/10:05pm 7.2 0.8 6.8 97 0.2 WNW 30 57 16 31 - - 16.8
24/10:00pm 7.1 1.0 6.7 97 0.2 WNW 28 39 15 21 - - 16.2
24/09:30pm 6.7 2.0 6.1 96 0.3 WNW 20 32 11 17 - - 15.4
24/09:00pm 6.2 1.0 5.5 95 0.3 WNW 22 32 12 17 - - 14.4
24/08:30pm 6.3 -1.0 5.6 95 0.3 WSW 33 50 18 27 - - 13.6
24/08:00pm 7.1 2.7 6.7 97 0.2 W 19 32 10 17 - - 11.4
24/07:30pm 7.3 3.4 6.9 97 0.2 WNW 17 30 9 16 - - 8.8
24/07:00pm 7.3 2.8 6.9 97 0.2 NW 20 26 11 14 - - 5.4
24/06:30pm 7.4 1.8 7.0 97 0.2 NNW 26 39 14 21 - - 4.0
24/06:00pm 7.1 2.5 6.7 97 0.2 NW 20 26 11 14 - - 3.2
24/05:30pm 7.4 2.9 7.0 97 0.2 NW 20 26 11 14 - - 3.2
24/05:00pm 7.5 3.0 7.1 97 0.2 WNW 20 28 11 15 - - 3.2
24/04:30pm 7.7 2.5 7.3 97 0.2 WNW 24 35 13 19 - - 2.6
24/04:00pm 7.7 2.5 7.3 97 0.2 WNW 24 35 13 19 - - 2.6
24/03:30pm 7.8 3.6 7.4 97 0.2 NW 19 28 10 15 - - 2.6
24/03:00pm 7.8 3.6 7.4 97 0.2 NNW 19 28 10 15 - - 2.6
24/02:30pm 7.9 3.7 7.5 97 0.2 NW 19 30 10 16 - - 2.6
24/02:00pm 7.9 2.8 7.5 97 0.2 NNW 24 35 13 19 - - 2.4
24/01:30pm 7.8 4.0 7.4 97 0.2 NNW 17 30 9 16 - - 1.8
24/01:00pm 7.7 3.8 7.1 96 0.3 NW 17 26 9 14 - - 1.6
24/12:30pm 7.6 4.4 7.0 96 0.3 NNW 13 20 7 11 - - 1.0
24/12:00pm 7.7 3.8 7.1 96 0.3 NW 17 30 9 16 - - 0.4
24/11:30am 7.6 3.7 6.9 95 0.3 NW 17 26 9 14 - - 0.4
24/11:00am 7.5 4.3 6.8 95 0.3 WNW 13 20 7 11 - - 0.2
24/10:30am 7.3 3.2 6.4 94 0.4 NW 17 26 9 14 - - 0.0
24/10:00am 7.2 1.8 6.3 94 0.4 NW 24 37 13 20 - - 0.0
24/09:30am 7.1 1.0 6.4 95 0.3 NW 28 43 15 23 - - 0.0
24/09:00am 7.0 2.0 6.3 95 0.3 NW 22 37 12 20 - - 0.4
24/08:30am 6.9 2.4 6.2 95 0.3 WNW 19 30 10 16 - - 0.4
24/08:00am 6.9 2.4 6.2 95 0.3 WNW 19 32 10 17 - - 0.2
24/07:30am 6.9 2.4 6.0 94 0.4 NW 19 30 10 16 - - 0.2
24/07:00am 7.0 0.7 5.8 92 0.6 WNW 28 41 15 22 - - 0.0
24/06:30am 6.9 0.6 5.8 93 0.5 NW 28 46 15 25 - - 0.0
24/06:18am 6.9 0.6 5.8 93 0.5 NW 28 46 15 25 - - 0.0
24/06:00am 6.8 2.1 5.9 94 0.4 NW 20 33 11 18 - - 0.0
24/05:30am 6.8 1.7 5.9 94 0.4 NW 22 37 12 20 - - 0.0
24/05:00am 6.7 3.3 5.7 93 0.5 WNW 13 20 7 11 - - 0.0
24/04:30am 6.7 2.4 5.3 91 0.7 WNW 17 22 9 12 - - 0.0
24/04:00am 6.9 2.3 5.4 90 0.7 NW 19 32 10 17 - - 0.0
24/03:30am 6.8 1.9 5.0 88 0.8 NW 20 30 11 16 - - 0.0
24/03:00am 6.6 1.6 4.4 86 1.0 NW 20 37 11 20 - - 0.0
24/02:30am 6.4 2.6 4.1 85 1.0 NW 13 22 7 12 - - 0.0
24/02:00am 6.4 2.6 3.7 83 1.2 NW 13 22 7 12 - - 0.0
24/01:30am 6.3 1.1 3.6 83 1.2 NW 20 30 11 16 - - 0.0
24/01:00am 6.2 0.6 3.5 83 1.2 NW 22 32 12 17 - - 0.0
24/12:30am 6.4 0.4 3.6 82 1.2 NW 24 39 13 21 - - 0.0
24/12:05am 6.4 -0.3 3.6 82 1.2 NW 28 46 15 25 - - 0.0
24/12:00am 6.4 -1.1 3.6 82 1.2 NW 32 46 17 25 - - 0.0
 
Date/Time
EST
Temp
°C
App
Temp
°C
Dew
Point
°C
Rel
Hum
%
Delta-T
°C
Wind Press
QNH
hPa
Press
MSL
hPa
Rain since
9am
mm
Dir  Spd
km/h
Gust
km/h
Spd
kts
Gust
kts
23/11:30pm 6.4 -1.1 3.4 81 1.3 WNW 32 46 17 25 - - 0.0
23/11:00pm 6.6 -1.5 3.2 79 1.5 WNW 35 65 19 35 - - 0.0
23/10:54pm 6.5 -1.6 3.1 79 1.5 WNW 35 65 19 35 - - 0.0
23/10:30pm 6.5 -1.1 3.1 79 1.5 WNW 32 46 17 25 - - 0.0
23/10:03pm 6.5 -1.1 3.1 79 1.5 NW 32 50 17 27 - - 0.0
23/10:00pm 6.5 -1.1 3.1 79 1.5 WNW 32 48 17 26 - - 0.0
23/09:32pm 6.5 -1.0 3.3 80 1.4 WNW 32 52 17 28 - - 0.0
23/09:30pm 6.5 -1.0 3.3 80 1.4 WNW 32 44 17 24 - - 0.0
23/09:00pm 6.5 -2.0 3.1 79 1.5 WNW 37 52 20 28 - - 0.0
23/08:30pm 6.2 -2.7 2.8 79 1.5 WNW 39 61 21 33 - - 0.0
23/08:07pm 6.1 -1.7 2.7 79 1.5 WNW 33 52 18 28 - - 0.0
23/08:00pm 6.1 -2.1 2.7 79 1.5 WNW 35 50 19 27 - - 0.0
23/07:30pm 6.3 -2.3 2.8 78 1.5 WNW 37 57 20 31 - - 0.0
23/07:12pm 6.6 -1.6 2.9 77 1.6 WNW 35 54 19 29 - - 0.0
23/07:00pm 6.7 -1.1 3.0 77 1.6 WNW 33 46 18 25 - - 0.0
23/06:56pm 6.6 -1.6 2.7 76 1.7 WNW 35 54 19 29 - - 0.0
23/06:30pm 7.0 -2.3 3.1 76 1.7 WNW 41 57 22 31 - - 0.0
23/06:00pm 6.8 -1.7 3.2 78 1.6 WNW 37 57 20 31 - - 0.0
23/05:30pm 6.9 -1.9 3.5 79 1.5 WNW 39 57 21 31 - - 0.0
23/05:09pm 7.2 -2.4 3.6 78 1.6 WNW 43 63 23 34 - - 0.0
23/05:00pm 7.3 -1.1 3.9 79 1.5 WNW 37 54 20 29 - - 0.0
23/04:31pm 7.6 -1.1 4.2 79 1.6 WNW 39 57 21 31 - - 0.0
23/04:30pm 7.6 -1.5 4.2 79 1.6 WNW 41 57 22 31 - - 0.0
23/04:26pm 7.6 -1.1 4.2 79 1.6 WNW 39 57 21 31 - - 0.0
23/04:00pm 7.7 -0.2 4.5 80 1.5 W 35 46 19 25 - - 0.0
23/03:30pm 7.9 0.4 4.5 79 1.6 WNW 33 46 18 25 - - 0.0
23/03:00pm 7.9 0.0 4.5 79 1.6 WNW 35 54 19 29 - - 0.0
23/02:32pm 7.9 0.4 4.7 80 1.5 WNW 33 52 18 28 - - 0.0
23/02:30pm 7.9 0.6 4.5 79 1.6 WNW 32 46 17 25 - - 0.0
23/02:00pm 7.8 -0.4 4.7 81 1.4 W 37 48 20 26 - - 0.0
23/01:39pm 8.0 -0.6 4.8 80 1.5 W 39 57 21 31 - - 0.0
23/01:30pm 8.0 -1.9 4.8 80 1.5 W 46 63 25 34 - - 0.0
23/01:12pm 8.2 -1.7 5.0 80 1.5 W 46 65 25 35 - - 0.0
23/01:00pm 8.1 -2.6 4.7 79 1.6 W 50 65 27 35 - - 0.0
23/12:30pm 9.1 -4.4 5.1 76 1.9 W 65 83 35 45 - - 0.0
23/12:00pm 8.7 -3.7 4.9 77 1.8 WNW 59 85 32 46 - - 0.0
23/11:30am 8.6 -2.7 5.2 79 1.6 WNW 54 72 29 39 - - 0.0
23/11:00am 8.4 -3.0 4.8 78 1.7 W 54 74 29 40 - - 0.0
23/10:46am 8.0 -3.4 4.9 81 1.4 W 54 74 29 40 - - 0.0
23/10:30am 7.7 -4.1 4.7 81 1.4 W 56 72 30 39 - - 0.0
23/10:00am 7.8 -3.3 4.7 81 1.4 WNW 52 78 28 42 - - 0.0
23/09:30am 7.4 -3.3 4.4 81 1.4 W 50 69 27 37 - - 0.0
23/09:01am 6.6 -4.6 4.1 84 1.1 W 52 72 28 39 - - 0.0
23/09:00am 6.6 -4.6 4.1 84 1.1 W 52 69 28 37 - - 0.8
23/08:54am 6.6 -5.3 4.1 84 1.1 W 56 74 30 40 - - 0.8
23/08:30am 6.5 -5.4 4.2 85 1.0 W 56 70 30 38 - - 0.8
23/08:00am 6.4 -3.5 4.7 89 0.8 W 46 67 25 36 - - 0.8
23/07:30am 6.6 -4.5 4.4 86 1.0 W 52 72 28 39 - - 0.8
23/07:00am 6.5 -4.7 4.2 85 1.0 W 52 70 28 38 - - 0.8
23/06:30am 6.7 -2.7 4.7 87 0.9 W 43 65 23 35 - - 0.8
23/06:00am 6.7 -2.9 4.5 86 1.0 W 44 63 24 34 - - 0.8
23/05:30am 6.8 -3.1 4.8 87 0.9 W 46 67 25 36 - - 0.8
23/05:01am 6.7 -3.6 4.7 87 0.9 W 48 70 26 38 - - 0.8
23/05:00am 6.7 -3.6 4.7 87 0.9 W 48 61 26 33 - - 0.8
23/04:30am 6.7 -3.6 4.7 87 0.9 W 48 69 26 37 - - 0.8
23/04:16am 6.3 -3.1 4.6 89 0.8 W 43 61 23 33 - - 0.8
23/04:00am 6.5 -4.2 4.5 87 0.9 W 50 63 27 34 - - 0.8
23/03:34am 6.5 -3.1 4.5 87 0.9 WNW 44 63 24 34 - - 0.8
23/03:30am 6.4 -3.0 4.6 88 0.8 W 43 59 23 32 - - 0.8
23/03:02am 6.1 -3.6 4.1 87 0.9 W 44 63 24 34 - - 0.8
23/03:00am 6.1 -3.9 4.1 87 0.9 W 46 63 25 34 - - 0.8
23/02:42am 6.2 -4.6 4.2 87 0.9 W 50 69 27 37 - - 0.8
23/02:30am 6.0 -4.4 4.2 88 0.8 WNW 48 61 26 33 - - 0.8
23/02:02am 5.9 -5.4 3.6 85 1.0 W 52 70 28 38 - - 0.8
23/02:00am 6.0 -5.7 3.5 84 1.1 W 54 70 29 38 - - 0.8
23/01:30am 5.9 -6.1 3.6 85 1.0 W 56 80 30 43 - - 0.8
23/01:08am 5.7 -5.2 3.4 85 1.0 W 50 70 27 38 - - 0.8
23/01:00am 5.7 -5.6 3.5 86 1.0 W 52 67 28 36 - - 0.8
23/12:49am 5.9 -5.0 3.6 85 1.0 W 50 69 27 37 - - 0.8
23/12:30am 5.7 -4.4 3.7 87 0.9 W 46 63 25 34 - - 0.8
23/12:00am 5.9 -2.8 4.1 88 0.8 W 39 61 21 33 - - 0.8
 
Date/Time
EST
Temp
°C
App
Temp
°C
Dew
Point
°C
Rel
Hum
%
Delta-T
°C
Wind Press
QNH
hPa
Press
MSL
hPa
Rain since
9am
mm
Dir  Spd
km/h
Gust
km/h
Spd
kts
Gust
kts
22/11:30pm 5.8 -2.9 4.0 88 0.8 W 39 57 21 31 - - 0.8
22/11:06pm 5.8 -3.8 4.6 92 0.5 W 44 67 24 36 - - 0.8

Other formats

Comma delimited format used in spreadsheet applications
http://www.bom.gov.au/fwo/IDT60801/IDT60801.94977.axf

JavaScript Object Notation format (JSON) in row-major order
http://www.bom.gov.au/fwo/IDT60801/IDT60801.94977.json

Data quality

Most of these data are generated automatically and are frequently updated. Quality checks on data are not normally performed. It is possible for incorrect values to appear. Refer to information at About Latest Weather Observations and please check the disclaimer before using these data.